Time;durP1;ratioP1;P1;durP2;ratioP2;P2;SDS_P1;SDS_P2;PMS_P1;PMS_P2;Temp;Humidity;BMP_temperature;BMP_pressure;BME280_temperature;BME280_humidity;BME280_pressure;Samples;Min_cycle;Max_cycle;Signal;HPM_P1;HPM_P2
2022/04/26 03:38:08;;;;;;;6.43;1.80;;;;;;;13.64;69.98;94157.81;5034795;28;20260;-61
2022/04/26 03:40:33;;;;;;;6.93;1.80;;;;;;;13.46;70.38;94154.63;5034227;28;20186;-60
2022/04/26 03:42:59;;;;;;;5.75;1.95;;;;;;;13.24;71.26;94153.50;5034288;28;20202;-59
2022/04/26 03:45:24;;;;;;;5.50;1.87;;;;;;;13.23;72.54;94156.22;5033173;28;20570;-59
2022/04/26 03:47:50;;;;;;;6.80;2.20;;;;;;;13.22;72.30;94160.53;5034457;28;20209;-60
2022/04/26 03:50:16;;;;;;;6.32;1.63;;;;;;;13.24;72.65;94156.06;5034078;28;20206;-62
2022/04/26 03:52:41;;;;;;;5.03;1.70;;;;;;;13.30;72.68;94163.09;5033214;28;20210;-62
2022/04/26 03:55:07;;;;;;;7.93;2.30;;;;;;;13.49;71.78;94178.09;5032675;28;20240;-61
2022/04/26 03:57:32;;;;;;;6.78;2.38;;;;;;;13.37;71.66;94169.13;5039718;23;20291;-64
2022/04/26 03:59:58;;;;;;;4.60;1.58;;;;;;;13.49;71.85;94178.09;5034046;28;20179;-61
2022/04/26 04:02:24;;;;;;;8.63;2.13;;;;;;;13.55;71.89;94189.44;5034136;28;20657;-61
2022/04/26 04:04:49;;;;;;;7.30;2.47;;;;;;;13.59;71.37;94188.16;5034084;28;20188;-61
2022/04/26 04:07:15;;;;;;;5.30;2.07;;;;;;;13.65;71.12;94199.50;5033594;28;20534;-62
2022/04/26 04:09:40;;;;;;;8.60;2.23;;;;;;;13.50;71.47;94189.09;5034069;28;20213;-62
2022/04/26 04:12:07;;;;;;;6.60;2.05;;;;;;;13.38;72.39;94178.41;5034038;28;20218;-60
2022/04/26 04:14:32;;;;;;;6.45;2.25;;;;;;;13.42;73.21;94182.25;5033707;28;20647;-61
2022/04/26 04:16:58;;;;;;;11.07;2.30;;;;;;;13.61;72.52;94193.91;5033626;28;20264;-60
2022/04/26 04:19:26;;;;;;;7.32;2.20;;;;;;;13.66;72.55;94199.31;5033644;28;20258;-62
2022/04/26 04:21:53;;;;;;;4.28;2.50;;;;;;;13.74;71.72;94204.44;5033687;28;20210;-60
2022/04/26 04:24:19;;;;;;;12.15;2.80;;;;;;;13.72;71.94;94208.91;5033441;28;20177;-64
2022/04/26 04:26:46;;;;;;;5.72;1.85;;;;;;;14.56;100.00;94205.94;5040371;23;20222;-61
2022/04/26 04:29:12;;;;;;;6.03;2.30;;;;;;;15.35;89.24;94260.31;5033275;28;20231;-60
2022/04/26 04:31:37;;;;;;;8.40;2.92;;;;;;;15.76;72.18;94404.41;5033505;28;20198;-59
2022/04/26 04:34:03;;;;;;;6.25;2.38;;;;;;;15.57;67.60;94415.91;5033388;28;20546;-58
2022/04/26 04:36:29;;;;;;;7.05;3.40;;;;;;;15.54;67.27;94405.97;5033566;28;20206;-61
2022/04/26 04:38:56;;;;;;;9.40;3.67;;;;;;;15.33;67.32;94389.53;5033112;28;20178;-60
2022/04/26 04:41:22;;;;;;;10.40;3.00;;;;;;;15.40;67.04;94390.44;5033497;28;20335;-65
2022/04/26 04:43:47;;;;;;;13.20;3.08;;;;;;;15.25;68.22;94366.50;5033343;28;20261;-62
2022/04/26 04:46:13;;;;;;;8.00;3.22;;;;;;;15.09;69.55;94339.16;5033163;28;20186;-60
2022/04/26 04:48:38;;;;;;;11.27;3.25;;;;;;;15.13;68.55;94359.16;5031775;28;20231;-61
2022/04/26 04:51:04;;;;;;;6.00;2.70;;;;;;;14.95;69.44;94343.19;5032918;28;20248;-62
2022/04/26 04:53:29;;;;;;;6.28;2.38;;;;;;;14.98;69.97;94337.78;5033144;28;20206;-61
2022/04/26 04:55:55;;;;;;;6.50;3.05;;;;;;;15.05;70.52;94332.78;5032982;28;20175;-63
2022/04/26 04:58:20;;;;;;;9.85;3.00;;;;;;;15.17;70.26;94339.13;5032742;28;20202;-61
2022/04/26 05:00:46;;;;;;;8.07;2.85;;;;;;;15.13;70.77;94331.00;5032956;28;20209;-60
2022/04/26 05:03:11;;;;;;;8.65;2.58;;;;;;;15.02;70.12;94343.34;5032760;28;20213;-60
2022/04/26 05:05:37;;;;;;;8.52;3.17;;;;;;;15.01;70.20;94341.75;5033019;28;20244;-59
2022/04/26 05:08:02;;;;;;;13.80;3.40;;;;;;;15.07;70.30;94338.53;5031316;28;20190;-60
2022/04/26 05:10:30;;;;;;;9.88;2.38;;;;;;;15.03;69.11;94360.28;5032581;28;20221;-60
2022/04/26 05:12:55;;;;;;;8.05;3.00;;;;;;;15.32;68.42;94367.41;5032402;28;20289;-63
2022/04/26 05:15:21;;;;;;;5.43;2.78;;;;;;;15.12;68.40;94365.25;5032299;28;20273;-63
2022/04/26 05:17:46;;;;;;;9.35;3.50;;;;;;;14.85;68.19;94370.75;5030814;28;20259;-62
2022/04/26 05:20:12;;;;;;;6.97;3.35;;;;;;;14.86;68.10;94371.53;5031943;28;20255;-62
2022/04/26 05:25:22;;;;;;;10.32;3.00;;;;;;;14.95;68.12;94357.75;5032526;28;20260;-64
2022/04/26 05:27:48;;;;;;;13.95;3.53;;;;;;;14.73;67.97;94366.91;5032806;28;20206;-61
2022/04/26 05:30:13;;;;;;;6.43;2.72;;;;;;;14.95;67.89;94363.69;5031099;28;20259;-60
2022/04/26 05:32:39;;;;;;;7.70;2.88;;;;;;;15.01;68.45;94362.22;5032227;28;20256;-59
2022/04/26 05:35:06;;;;;;;10.07;3.15;;;;;;;15.14;68.57;94357.41;5031042;28;20186;-60
2022/04/26 05:37:32;;;;;;;7.15;2.83;;;;;;;15.01;68.10;94368.16;5030936;28;20194;-60
2022/04/26 05:40:02;;;;;;;13.18;2.70;;;;;;;15.14;68.30;94360.75;5030954;28;20184;-60
2022/04/26 05:42:28;;;;;;;6.35;2.58;;;;;;;15.30;68.53;94361.66;5030806;28;20205;-61
2022/04/26 05:44:54;;;;;;;8.65;2.85;;;;;;;15.49;66.43;94407.44;5032248;28;20238;-59
2022/04/26 05:47:19;;;;;;;6.63;2.60;;;;;;;15.55;67.10;94386.28;5031146;28;20218;-63
2022/04/26 05:49:45;;;;;;;10.38;2.50;;;;;;;15.52;67.18;94384.03;5031924;28;20202;-62
2022/04/26 05:52:10;;;;;;;8.35;2.33;;;;;;;15.54;66.88;94392.34;5032468;28;20693;-62
2022/04/26 05:54:36;;;;;;;7.65;2.92;;;;;;;15.67;66.53;94390.06;5030641;28;20228;-59
2022/04/26 05:57:01;;;;;;;5.65;2.10;;;;;;;15.73;65.50;94413.28;5032474;28;20202;-63
2022/04/26 05:59:27;;;;;;;8.05;2.28;;;;;;;15.80;65.85;94408.25;5032268;28;20174;-59
2022/04/26 06:01:53;;;;;;;8.43;2.60;;;;;;;15.82;65.31;94414.00;5032098;28;20239;-60
2022/04/26 06:04:18;;;;;;;6.75;2.38;;;;;;;16.03;65.42;94416.00;5032018;28;20266;-61
2022/04/26 06:06:44;;;;;;;7.38;2.70;;;;;;;16.23;65.30;94400.00;5030928;28;20206;-59
2022/04/26 06:09:13;;;;;;;7.78;2.60;;;;;;;16.17;67.31;94369.91;5031931;28;20201;-58
2022/04/26 06:11:38;;;;;;;9.15;2.80;;;;;;;16.23;66.91;94371.00;5030169;28;20214;-60
2022/04/26 06:14:04;;;;;;;5.10;2.90;;;;;;;16.26;66.42;94375.78;5031827;28;20722;-60
2022/04/26 06:16:29;;;;;;;7.65;2.72;;;;;;;16.19;65.62;94387.69;5030205;28;20232;-60
2022/04/26 06:18:55;;;;;;;23.65;5.65;;;;;;;16.16;64.64;94413.69;5031581;28;20201;-59
2022/04/26 06:21:20;;;;;;;11.50;4.68;;;;;;;16.57;63.66;94436.38;5031639;28;20213;-60
2022/04/26 06:23:46;;;;;;;15.10;5.60;;;;;;;16.62;62.92;94434.06;5031724;28;20255;-64
2022/04/26 06:26:12;;;;;;;7.78;3.90;;;;;;;16.03;63.61;94423.69;5031644;28;20201;-62
2022/04/26 06:28:37;;;;;;;15.70;5.00;;;;;;;15.99;64.76;94392.47;5031498;28;20193;-60
2022/04/26 06:31:03;;;;;;;13.38;4.50;;;;;;;15.98;65.44;94383.16;5033575;28;20205;-61
2022/04/26 06:33:28;;;;;;;8.48;4.18;;;;;;;15.96;64.54;94400.47;5035556;28;20596;-60
2022/04/26 06:35:54;;;;;;;12.65;4.07;;;;;;;16.08;63.56;94416.31;5034319;28;20189;-59
2022/04/26 06:38:22;;;;;;;13.55;4.13;;;;;;;16.12;62.53;94431.16;5035456;28;20258;-60
2022/04/26 06:40:48;;;;;;;13.77;3.88;;;;;;;16.06;62.00;94436.97;5035609;28;20265;-60
2022/04/26 06:43:14;;;;;;;9.20;3.22;;;;;;;16.50;60.20;94475.72;5033996;28;20198;-63
2022/04/26 06:45:40;;;;;;;7.80;2.95;;;;;;;16.56;60.41;94464.78;5035127;28;20182;-60
2022/04/26 06:48:09;;;;;;;7.70;2.75;;;;;;;16.50;59.51;94481.63;5035513;28;20198;-59
2022/04/26 06:50:35;;;;;;;3.92;2.10;;;;;;;16.49;58.64;94489.50;5042252;23;20249;-60
2022/04/26 06:53:01;;;;;;;8.95;2.20;;;;;;;16.56;58.65;94477.63;5035143;28;20194;-59
2022/04/26 06:55:26;;;;;;;4.35;1.65;;;;;;;16.62;57.92;94495.69;5035466;28;20200;-60
2022/04/26 06:57:52;;;;;;;10.30;1.77;;;;;;;16.51;58.18;94487.56;5035306;28;20194;-63
2022/04/26 07:00:17;;;;;;;5.13;1.95;;;;;;;16.54;58.04;94485.47;5035386;28;20270;-63
2022/04/26 07:02:43;;;;;;;5.38;2.38;;;;;;;16.59;58.20;94469.56;5033685;28;20628;-63
2022/04/26 07:05:11;;;;;;;4.72;1.67;;;;;;;16.97;57.54;94494.31;5034579;28;20193;-59
2022/04/26 07:07:37;;;;;;;4.15;2.05;;;;;;;17.16;56.26;94514.41;5023433;22;20231;-62
2022/04/26 07:10:03;;;;;;;3.78;2.20;;;;;;;17.14;56.08;94500.94;5014781;28;20217;-60
2022/04/26 07:12:28;;;;;;;5.20;2.38;;;;;;;17.20;56.33;94495.09;5015121;28;20543;-62
2022/04/26 07:14:54;;;;;;;8.05;2.25;;;;;;;17.13;58.24;94442.81;5014906;28;20211;-62
2022/04/26 07:17:19;;;;;;;9.10;2.30;;;;;;;17.22;57.72;94459.75;5015052;28;20225;-63
2022/04/26 07:19:45;;;;;;;5.53;2.10;;;;;;;17.25;57.88;94456.81;5014815;28;20171;-59
2022/04/26 07:22:10;;;;;;;5.80;2.35;;;;;;;17.62;54.95;94530.56;5014915;28;20206;-59
2022/04/26 07:24:36;;;;;;;8.00;2.92;;;;;;;17.75;54.45;94525.63;5015610;28;20183;-61
2022/04/26 07:27:01;;;;;;;8.02;3.00;;;;;;;17.65;55.96;94489.09;5014784;28;20203;-61
2022/04/26 07:29:27;;;;;;;7.90;2.55;;;;;;;17.75;55.69;94486.25;5014664;28;20688;-62
2022/04/26 07:31:53;;;;;;;6.80;2.33;;;;;;;17.88;55.79;94484.63;4996975;28;20206;-62
2022/04/26 07:34:21;;;;;;;9.07;2.30;;;;;;;17.98;55.23;94510.09;5014505;28;20179;-61
2022/04/26 07:36:53;;;;;;;7.75;2.05;;;;;;;18.23;52.75;94561.09;5014280;28;20211;-62
2022/04/26 07:39:20;;;;;;;5.20;2.15;;;;;;;17.94;53.23;94524.28;5014562;28;20194;-62
2022/04/26 07:41:46;;;;;;;7.25;1.98;;;;;;;17.99;53.30;94524.56;5013978;28;20207;-62
2022/04/26 07:44:13;;;;;;;3.13;1.35;;;;;;;18.28;51.43;94561.34;5014016;28;20257;-62
2022/04/26 07:46:43;;;;;;;4.82;2.45;;;;;;;18.32;52.91;94513.69;5014559;28;20207;-62
2022/04/26 07:49:10;;;;;;;7.80;1.75;;;;;;;18.38;52.30;94536.13;5014434;28;20310;-60
2022/04/26 07:51:36;;;;;;;7.07;1.65;;;;;;;18.53;51.85;94541.28;5014167;28;20229;-62
2022/04/26 07:54:01;;;;;;;4.97;2.65;;;;;;;19.00;64.95;94303.75;5014120;28;20167;-63
2022/04/26 07:56:27;;;;;;;6.80;2.50;;;;;;;19.44;66.97;94257.81;5014242;28;20187;-63
2022/04/26 07:58:54;;;;;;;5.30;1.70;;;;;;;19.83;61.79;94348.22;5014090;28;20182;-62
2022/04/26 08:01:20;;;;;;;3.47;1.60;;;;;;;19.75;51.51;94577.19;5013895;28;20175;-59
2022/04/26 08:03:45;;;;;;;4.18;1.38;;;;;;;19.85;49.49;94588.78;5014064;28;20269;-60
2022/04/26 08:06:11;;;;;;;4.65;1.75;;;;;;;19.58;49.52;94543.13;5013621;28;20555;-61
2022/04/26 08:08:36;;;;;;;2.10;1.50;;;;;;;19.94;50.72;94506.84;5014287;28;20187;-61
2022/04/26 08:11:03;;;;;;;6.80;1.92;;;;;;;19.85;50.27;94506.22;5013624;28;20799;-63
2022/04/26 08:13:28;;;;;;;9.68;2.03;;;;;;;19.58;51.50;94468.34;4996071;28;20301;-63
2022/04/26 08:15:54;;;;;;;11.73;2.33;;;;;;;19.96;49.60;94520.34;5013594;28;20263;-62
2022/04/26 08:18:20;;;;;;;4.88;2.03;;;;;;;19.96;49.33;94515.19;5014098;28;20210;-64
2022/04/26 08:20:45;;;;;;;6.80;2.30;;;;;;;20.16;50.63;94469.63;4996027;28;20653;-62
2022/04/26 08:23:18;;;;;;;5.53;1.98;;;;;;;20.16;51.77;94443.03;5013448;28;20199;-64
2022/04/26 08:28:28;;;;;;;4.10;1.90;;;;;;;20.47;51.40;94456.25;5013699;28;20289;-60
2022/04/26 08:30:56;;;;;;;9.05;2.40;;;;;;;20.48;51.31;94466.38;5013618;28;20266;-63
2022/04/26 08:33:22;;;;;;;7.05;2.55;;;;;;;20.43;49.17;94509.28;5013868;28;20221;-61
2022/04/26 08:35:47;;;;;;;11.07;3.28;;;;;;;20.01;48.46;94510.28;5013534;28;20653;-62
2022/04/26 08:38:13;;;;;;;8.43;2.70;;;;;;;20.12;48.91;94488.28;5012950;28;20206;-62
2022/04/26 08:40:42;;;;;;;9.68;3.03;;;;;;;20.21;53.25;94389.84;5013199;28;20179;-62
2022/04/26 08:43:08;;;;;;;12.18;2.97;;;;;;;20.40;51.39;94450.28;5038508;23;20237;-62
2022/04/26 08:45:35;;;;;;;9.13;2.97;;;;;;;20.50;51.80;94420.50;5032966;28;20190;-63
2022/04/26 08:51:00;;;;;;;10.70;3.03;;;;;;;20.61;53.37;94398.47;5032812;28;20300;-63
2022/04/26 08:53:28;;;;;;;12.90;2.72;;;;;;;20.41;53.14;94395.06;5032713;28;20222;-60
2022/04/26 08:55:56;;;;;;;8.27;2.72;;;;;;;20.80;51.24;94446.81;5032332;28;20192;-60
2022/04/26 08:58:22;;;;;;;8.88;2.97;;;;;;;20.95;51.27;94446.63;5032631;28;20334;-61
2022/04/26 09:01:05;;;;;;;6.55;3.20;;;;;;;20.64;54.20;94374.84;5031411;28;20193;-61
2022/04/26 09:03:32;;;;;;;9.75;3.08;;;;;;;20.70;53.37;94394.72;5032544;28;20190;-63
2022/04/26 09:06:15;;;;;;;10.43;2.83;;;;;;;20.75;54.63;94361.31;5032796;28;20194;-60
2022/04/26 09:08:42;;;;;;;8.63;2.95;;;;;;;21.27;53.18;94399.31;5032679;28;20673;-64
2022/04/26 09:11:33;;;;;;;11.15;3.38;;;;;;;21.41;55.63;94352.50;5032554;28;20181;-60
2022/04/26 09:13:59;;;;;;;10.07;3.03;;;;;;;21.51;53.09;94407.19;5032440;28;20245;-63
2022/04/26 09:16:25;;;;;;;10.05;3.22;;;;;;;21.66;52.03;94420.72;5031309;28;20186;-62
2022/04/26 09:19:11;;;;;;;11.27;2.38;;;;;;;21.77;49.32;94482.19;5032681;28;20170;-64
2022/04/26 09:21:53;;;;;;;10.73;3.05;;;;;;;22.12;49.52;94476.78;5032153;28;20279;-63
2022/04/26 09:24:18;;;;;;;12.85;3.30;;;;;;;22.16;48.69;94481.31;5032559;28;20174;-61
2022/04/26 09:26:44;;;;;;;7.88;2.70;;;;;;;22.37;49.92;94457.75;5032805;28;20699;-63
2022/04/26 09:29:18;;;;;;;10.68;2.70;;;;;;;22.41;48.01;94495.19;5032116;28;20217;-63
2022/04/26 09:31:44;;;;;;;6.63;1.90;;;;;;;22.74;49.66;94456.19;5032538;28;20193;-64
2022/04/26 09:34:11;;;;;;;8.85;2.45;;;;;;;22.92;45.81;94554.00;5030918;28;20613;-60
2022/04/26 09:36:46;;;;;;;20.38;2.88;;;;;;;23.01;46.14;94530.19;5032331;28;20205;-62
2022/04/26 09:39:23;;;;;;;4.97;2.50;;;;;;;22.90;45.34;94512.72;5032225;28;20170;-61
2022/04/26 09:41:50;;;;;;;8.48;1.80;;;;;;;23.33;47.80;94453.97;5032518;28;20221;-63
2022/04/26 09:44:16;;;;;;;8.60;2.95;;;;;;;23.57;47.70;94447.19;5032323;28;20561;-63
2022/04/26 09:46:54;;;;;;;4.85;2.50;;;;;;;23.58;45.41;94492.09;5030648;28;20735;-62
2022/04/26 09:49:22;;;;;;;9.30;2.00;;;;;;;23.93;45.83;94464.59;5032190;28;20237;-63
2022/04/26 09:51:58;;;;;;;9.43;2.40;;;;;;;24.19;44.59;94477.34;5032235;28;20232;-61
2022/04/26 09:54:24;;;;;;;13.05;2.70;;;;;;;24.37;43.43;94497.31;5031853;28;20174;-65
2022/04/26 09:56:50;;;;;;;7.20;2.90;;;;;;;24.39;43.69;94477.09;5030632;28;20209;-62
2022/04/26 09:59:43;;;;;;;12.07;2.00;;;;;;;24.30;42.10;94501.81;5032111;28;20175;-61
2022/04/26 10:02:14;;;;;;;8.10;2.45;;;;;;;24.72;44.12;94443.69;5032147;28;20696;-60
2022/04/26 10:04:47;;;;;;;8.90;2.33;;;;;;;24.98;42.34;94470.13;5031664;28;20170;-60
2022/04/26 10:07:17;;;;;;;11.50;2.55;;;;;;;24.99;42.66;94456.09;5035830;28;20214;-64
2022/04/26 10:09:45;;;;;;;10.05;2.70;;;;;;;24.46;39.13;94473.41;5036002;28;20205;-62
2022/04/26 10:12:12;;;;;;;10.43;3.25;;;;;;;24.73;41.62;94420.06;5036130;28;20743;-60
2022/04/26 10:14:38;;;;;;;9.73;2.85;;;;;;;25.14;40.59;94436.66;5036108;28;20265;-62
2022/04/26 10:17:04;;;;;;;8.13;2.17;;;;;;;25.46;41.21;94422.34;5034590;28;20579;-63
2022/04/26 10:19:38;;;;;;;4.95;2.00;;;;;;;25.65;38.14;94488.94;5035685;28;20240;-61
2022/04/26 10:22:04;;;;;;;5.65;2.50;;;;;;;25.57;38.51;94463.25;5035443;28;20202;-63
2022/04/26 10:24:30;;;;;;;7.25;2.40;;;;;;;25.61;38.64;94464.38;5035653;28;20178;-63
2022/04/26 10:27:16;;;;;;;11.90;2.42;;;;;;;24.48;39.87;94427.22;5035978;28;20263;-61
2022/04/26 10:29:46;;;;;;;3.22;1.80;;;;;;;24.96;37.86;94466.97;5035699;28;20727;-63
2022/04/26 10:32:31;;;;;;;7.63;2.10;;;;;;;24.81;37.75;94447.56;5035961;28;20202;-65
2022/04/26 10:35:25;;;;;;;6.35;1.85;;;;;;;25.12;41.13;94365.84;5035344;28;20265;-64
2022/04/26 10:38:14;;;;;;;9.35;1.98;;;;;;;25.56;38.44;94425.19;5034011;28;20635;-62
2022/04/26 10:41:09;;;;;;;12.32;2.30;;;;;;;25.45;38.21;94431.19;5034220;28;20303;-62
2022/04/26 10:43:34;;;;;;;7.45;1.85;;;;;;;25.87;37.04;94458.69;5022349;28;20198;-63
2022/04/26 10:46:13;;;;;;;6.53;1.83;;;;;;;24.83;36.28;94433.31;5035409;28;20178;-62
2022/04/26 10:48:40;;;;;;;11.02;2.08;;;;;;;24.18;37.68;94415.97;5033421;28;20653;-63
2022/04/26 10:53:45;;;;;;;6.07;2.40;;;;;;;24.83;39.90;94368.31;5041831;22;20225;-63
2022/04/26 10:56:10;;;;;;;5.68;1.95;;;;;;;25.07;38.38;94391.75;5034898;28;20209;-62
2022/04/26 10:58:36;;;;;;;8.48;2.25;;;;;;;24.83;39.78;94357.09;5035094;28;20661;-62
2022/04/26 11:01:01;;;;;;;14.63;2.97;;;;;;;23.92;37.58;94398.06;5034906;28;20183;-63
2022/04/26 11:03:27;;;;;;;10.07;2.05;;;;;;;23.78;38.41;94381.06;5034707;28;20205;-63
2022/04/26 11:05:54;;;;;;;5.70;1.90;;;;;;;24.16;38.15;94390.22;5034910;28;20692;-63
2022/04/26 11:08:19;;;;;;;8.60;2.40;;;;;;;24.83;39.83;94342.28;5035128;28;20344;-61
2022/04/26 11:13:42;;;;;;;3.38;1.75;;;;;;;25.39;36.22;94417.22;4990604;28;20204;-63
2022/04/26 11:16:12;;;;;;;6.40;1.95;;;;;;;25.32;36.06;94419.16;5034623;28;20174;-63
2022/04/26 11:18:42;;;;;;;5.57;3.05;;;;;;;25.33;35.57;94427.75;5032802;28;20182;-63
2022/04/26 11:21:08;;;;;;;8.40;1.95;;;;;;;25.04;36.34;94405.22;5034783;28;20174;-62
2022/04/26 11:29:26;;;;;;;4.88;1.77;;;;;;;24.70;36.40;94404.91;5034415;28;20597;-61
2022/04/26 11:31:51;;;;;;;6.93;2.35;;;;;;;24.41;35.23;94421.28;5034406;28;20233;-60
2022/04/26 11:34:17;;;;;;;6.13;2.38;;;;;;;24.09;36.00;94406.91;5034369;28;20269;-63
2022/04/26 11:36:42;;;;;;;11.60;2.65;;;;;;;23.80;37.68;94372.03;5034239;28;20206;-62
2022/04/26 11:39:08;;;;;;;11.80;2.30;;;;;;;23.24;39.39;94330.69;5034330;28;20186;-65
2022/04/26 11:41:33;;;;;;;10.93;2.67;;;;;;;22.95;40.43;94304.63;5034157;28;20198;-64
2022/04/26 11:44:06;;;;;;;5.47;2.05;;;;;;;22.68;37.89;94355.94;5034158;28;20170;-62
2022/04/26 11:46:31;;;;;;;6.07;1.55;;;;;;;22.51;37.01;94380.72;5032680;28;20213;-61
2022/04/26 11:48:59;;;;;;;2.45;1.50;;;;;;;22.45;37.03;94369.41;5034092;28;20214;-61
2022/04/26 11:51:25;;;;;;;4.65;1.90;;;;;;;22.48;38.64;94340.47;5033630;28;20596;-63
2022/04/26 11:53:51;;;;;;;6.95;1.33;;;;;;;22.46;35.57;94403.91;5034088;28;20174;-62
2022/04/26 11:56:18;;;;;;;12.02;1.50;;;;;;;22.34;34.75;94410.75;5032498;28;20186;-60
2022/04/26 11:58:44;;;;;;;4.55;1.58;;;;;;;22.42;34.17;94410.50;5033737;28;20572;-62
2022/04/26 12:01:17;;;;;;;3.55;1.10;;;;;;;22.45;34.58;94391.94;5033930;28;20180;-62
2022/04/26 12:03:52;;;;;;;4.93;1.30;;;;;;;22.48;36.13;94352.66;5032523;28;20190;-63
2022/04/26 12:06:24;;;;;;;7.85;1.55;;;;;;;23.07;35.88;94347.81;5033585;28;20265;-60
2022/04/26 12:08:54;;;;;;;5.72;1.45;;;;;;;23.82;35.25;94367.44;5033907;28;20236;-61
2022/04/26 12:11:22;;;;;;;5.53;1.40;;;;;;;24.51;33.80;94395.56;5033544;28;20182;-61
2022/04/26 12:14:01;;;;;;;4.40;1.45;;;;;;;24.89;32.69;94422.03;5033519;28;20213;-62
2022/04/26 12:16:29;;;;;;;7.60;1.60;;;;;;;25.41;34.29;94378.00;5033555;28;20190;-62
2022/04/26 12:18:56;;;;;;;2.95;1.35;;;;;;;25.16;32.26;94424.22;5032375;28;20190;-62
2022/04/26 12:21:24;;;;;;;5.70;2.10;;;;;;;25.02;31.59;94428.06;5032261;28;20767;-62
2022/04/26 12:24:13;;;;;;;5.63;2.13;;;;;;;24.91;31.95;94412.19;5033463;28;20185;-63
2022/04/26 12:26:55;;;;;;;4.38;1.40;;;;;;;24.75;33.25;94389.44;5033903;28;20190;-64
2022/04/26 12:29:22;;;;;;;7.10;1.45;;;;;;;24.68;33.31;94385.31;5033068;28;20217;-63
2022/04/26 12:31:49;;;;;;;6.25;2.03;;;;;;;24.76;34.33;94359.81;5033262;28;20202;-62
2022/04/26 12:34:23;;;;;;;7.88;2.30;;;;;;;24.58;33.86;94374.66;5032179;28;20549;-64
2022/04/26 12:37:29;;;;;;;6.93;1.63;;;;;;;24.60;33.65;94381.25;5033448;28;20226;-63
2022/04/26 12:39:58;;;;;;;3.13;1.30;;;;;;;24.89;34.11;94366.59;5030886;28;20202;-64
2022/04/26 12:42:26;;;;;;;7.18;1.40;;;;;;;25.19;36.79;94327.50;5033471;28;20206;-62
2022/04/26 12:44:58;;;;;;;6.18;1.80;;;;;;;25.31;36.33;94333.50;5033163;28;20179;-62
2022/04/26 12:53:17;;;;;;;5.75;1.50;;;;;;;24.22;38.54;94296.81;5033030;28;20275;-63
2022/04/26 12:55:42;;;;;;;3.63;1.60;;;;;;;24.14;39.81;94261.53;5018152;28;20194;-61
2022/04/26 12:58:10;;;;;;;4.25;1.40;;;;;;;24.23;38.08;94288.81;5032280;28;20210;-62
2022/04/26 13:00:42;;;;;;;4.32;1.40;;;;;;;24.69;36.86;94324.50;5031611;28;20190;-63
2022/04/26 13:03:09;;;;;;;5.25;1.50;;;;;;;25.00;36.12;94339.81;5032410;28;20297;-62
2022/04/26 13:05:45;;;;;;;5.18;1.30;;;;;;;25.22;36.01;94340.06;5031532;28;20178;-62
2022/04/26 13:08:13;;;;;;;1.80;1.35;;;;;;;25.29;37.00;94314.72;5032093;28;20198;-63
2022/04/26 13:10:42;;;;;;;4.55;1.67;;;;;;;25.51;35.46;94355.56;5031476;28;20210;-62
2022/04/26 13:13:09;;;;;;;7.63;1.75;;;;;;;25.75;37.44;94319.84;5031510;28;20205;-62
2022/04/26 13:15:36;;;;;;;4.75;1.83;;;;;;;25.64;36.09;94347.50;5031464;28;20177;-60
2022/04/26 13:18:03;;;;;;;14.18;1.77;;;;;;;25.14;36.47;94332.59;5031915;28;20696;-60
2022/04/26 13:20:29;;;;;;;3.60;1.67;;;;;;;25.08;38.06;94302.25;5031751;28;20493;-58
2022/04/26 13:22:55;;;;;;;6.70;1.70;;;;;;;25.29;38.39;94291.28;5031913;28;20194;-62
2022/04/26 13:25:21;;;;;;;3.75;1.02;;;;;;;25.51;36.78;94329.50;5031954;28;20247;-62
2022/04/26 13:27:47;;;;;;;8.32;1.48;;;;;;;25.33;37.11;94326.25;5031744;28;20592;-61
2022/04/26 13:30:13;;;;;;;9.52;1.58;;;;;;;25.19;38.18;94306.69;5031319;28;20198;-62
2022/04/26 13:32:39;;;;;;;2.80;1.15;;;;;;;25.12;38.42;94293.78;5030157;28;20206;-60
2022/04/26 13:35:06;;;;;;;4.70;1.80;;;;;;;25.28;39.44;94287.09;5031512;28;20178;-63
2022/04/26 13:37:32;;;;;;;3.20;1.48;;;;;;;25.24;39.85;94265.13;5031473;28;20218;-62
2022/04/26 13:40:00;;;;;;;5.32;1.80;;;;;;;25.19;39.98;94268.41;5029162;28;20189;-62
2022/04/26 13:42:27;;;;;;;7.88;1.42;;;;;;;25.32;40.58;94259.56;5031353;28;20225;-60
2022/04/26 13:44:54;;;;;;;3.47;1.55;;;;;;;25.28;41.30;94235.84;5031382;28;20177;-61
2022/04/26 13:47:20;;;;;;;2.47;1.38;;;;;;;24.87;41.65;94233.38;5013548;28;20289;-62
2022/04/26 13:49:46;;;;;;;4.82;1.85;;;;;;;24.38;42.46;94224.19;5031128;28;20293;-60
2022/04/26 13:54:17;;;;;;;2.65;1.48;;;;;;;23.33;44.72;94178.94;5163244;27;20517;-63
2022/04/26 13:56:42;;;;;;;3.20;1.30;;;;;;;23.08;46.17;94151.50;5130307;28;20750;-62
2022/04/26 13:59:09;;;;;;;7.45;1.80;;;;;;;23.12;46.82;94140.50;5128873;28;20332;-63
2022/04/26 14:01:34;;;;;;;6.50;1.83;;;;;;;22.94;47.65;94137.91;5130094;27;20187;-63
2022/04/26 14:04:00;;;;;;;4.78;1.50;;;;;;;23.35;46.38;94161.34;5130002;27;20201;-64
2022/04/26 14:06:25;;;;;;;5.65;1.38;;;;;;;23.52;45.98;94178.91;5130163;27;20220;-64
2022/04/26 14:08:51;;;;;;;5.35;1.63;;;;;;;23.77;45.48;94182.97;5099222;22;20236;-63
2022/04/26 14:11:18;;;;;;;3.30;1.73;;;;;;;23.47;45.41;94189.97;5088843;28;20534;-61
2022/04/26 14:21:55;;;;;;;6.50;1.85;;;;;;;22.74;46.67;94193.59;5088970;28;20226;-63
2022/04/26 14:24:21;;;;;;;5.28;2.08;;;;;;;22.66;47.50;94193.88;5070530;28;20184;-63
2022/04/26 14:26:49;;;;;;;7.15;1.60;;;;;;;22.51;48.19;94209.72;5088686;28;20560;-63
2022/04/26 14:29:15;;;;;;;6.93;2.35;;;;;;;22.01;48.52;94198.56;5088969;28;20579;-62
2022/04/26 14:31:41;;;;;;;4.25;1.42;;;;;;;21.77;49.03;94206.28;5088582;28;20212;-63
2022/04/26 14:34:07;;;;;;;5.18;1.42;;;;;;;21.84;48.45;94220.00;5088666;28;20255;-62
2022/04/26 14:36:32;;;;;;;3.28;1.38;;;;;;;21.77;49.03;94231.13;5088624;28;20267;-63
2022/04/26 14:38:58;;;;;;;7.78;1.98;;;;;;;21.75;49.63;94225.38;5114938;22;20230;-62
2022/04/26 14:41:23;;;;;;;8.68;1.70;;;;;;;21.43;50.39;94215.22;5108544;28;20228;-63
2022/04/26 14:43:48;;;;;;;5.75;1.67;;;;;;;21.39;50.99;94221.81;5109147;28;20704;-62
2022/04/26 14:46:14;;;;;;;3.55;1.40;;;;;;;21.59;50.31;94235.44;5108911;28;20180;-63
2022/04/26 14:48:40;;;;;;;3.63;1.25;;;;;;;21.47;50.76;94231.94;5109162;28;20191;-64
2022/04/26 14:51:05;;;;;;;4.18;1.38;;;;;;;20.84;52.46;94238.66;5090522;28;20241;-64
2022/04/26 14:53:31;;;;;;;5.47;1.45;;;;;;;20.70;51.57;94261.16;5108926;28;20219;-64
2022/04/26 14:55:59;;;;;;;3.85;1.00;;;;;;;20.54;50.43;94274.47;5090382;28;20571;-63
2022/04/26 14:58:34;;;;;;;16.42;1.40;;;;;;;20.46;51.01;94271.31;5108755;28;20211;-63
2022/04/26 15:01:00;;;;;;;4.25;1.08;;;;;;;20.20;54.83;94209.34;5090145;28;20187;-63
2022/04/26 15:03:26;;;;;;;5.35;1.00;;;;;;;19.98;54.70;94213.84;5105984;28;20192;-61
2022/04/26 15:05:51;;;;;;;3.45;1.00;;;;;;;19.95;55.80;94220.22;5094818;28;20202;-61
2022/04/26 15:11:00;;;;;;;1.98;1.30;;;;;;;19.34;61.79;94218.69;5095004;28;20226;-61
2022/04/26 15:18:54;;;;;;;4.15;1.10;;;;;;;20.74;60.34;94272.69;5102522;22;20269;-62
2022/04/26 15:21:19;;;;;;;2.65;1.15;;;;;;;20.96;59.65;94280.19;5094283;28;20180;-61
2022/04/26 15:23:45;;;;;;;3.42;1.20;;;;;;;21.28;57.65;94311.19;5094830;28;20183;-62
2022/04/26 15:26:11;;;;;;;3.90;1.45;;;;;;;21.64;56.96;94332.16;5094446;28;20602;-63
2022/04/26 15:28:38;;;;;;;6.25;1.63;;;;;;;21.54;55.46;94347.31;5094610;28;20191;-63
2022/04/26 15:31:05;;;;;;;3.30;1.20;;;;;;;21.32;55.56;94345.19;5094066;28;20237;-62
2022/04/26 15:33:30;;;;;;;4.50;1.77;;;;;;;21.05;56.14;94335.91;5094494;28;20220;-63
2022/04/26 15:35:57;;;;;;;3.45;1.20;;;;;;;20.99;57.50;94321.16;5094254;28;20181;-63
2022/04/26 15:38:23;;;;;;;2.85;1.65;;;;;;;20.93;58.71;94300.28;5094431;28;20212;-62
2022/04/26 15:40:50;;;;;;;2.22;1.40;;;;;;;20.93;59.68;94286.56;5093934;28;20255;-63
2022/04/26 15:43:15;;;;;;;3.50;1.55;;;;;;;20.99;57.11;94321.94;5094340;28;20219;-61
2022/04/26 15:45:42;;;;;;;4.38;1.33;;;;;;;20.89;58.10;94301.66;5093872;28;20176;-61
2022/04/26 15:48:07;;;;;;;3.63;1.40;;;;;;;20.46;58.41;94304.88;5094295;28;20258;-63
2022/04/26 15:50:33;;;;;;;6.50;1.70;;;;;;;20.89;59.74;94280.19;5093751;28;20666;-64
2022/04/26 15:53:00;;;;;;;4.25;1.75;;;;;;;20.76;62.19;94251.81;5093900;28;20211;-63
2022/04/26 15:58:09;;;;;;;3.03;2.08;;;;;;;21.28;67.73;94253.47;5094347;28;20631;-64